createdAt,value
2023-01-28T00:01:41.084Z,-5.80
2023-01-28T00:04:08.708Z,-6.00
2023-01-28T00:06:36.515Z,-5.90
2023-01-28T00:09:04.500Z,-6.10
2023-01-28T00:11:32.337Z,-6.00
2023-01-28T00:14:00.477Z,-6.00
2023-01-28T00:16:31.543Z,-6.10
2023-01-28T00:18:59.157Z,-5.90
2023-01-28T00:21:26.885Z,-6.10
2023-01-28T00:23:56.010Z,-6.20
2023-01-28T00:26:25.395Z,-6.20
2023-01-28T00:28:53.153Z,-6.30
2023-01-28T00:31:23.097Z,-6.20
2023-01-28T00:33:51.912Z,-6.10
2023-01-28T00:36:20.959Z,-6.20
2023-01-28T00:38:56.643Z,-6.20
2023-01-28T00:41:29.786Z,-6.30
2023-01-28T00:43:59.709Z,-6.30
2023-01-28T00:46:28.089Z,-6.40
2023-01-28T00:48:56.611Z,-6.40
2023-01-28T00:51:24.557Z,-6.50
2023-01-28T00:53:54.154Z,-6.40
2023-01-28T00:56:21.887Z,-6.40
2023-01-28T00:58:50.069Z,-6.60
2023-01-28T01:01:27.909Z,-6.50
2023-01-28T01:04:03.332Z,-6.50
2023-01-28T01:06:35.600Z,-6.40
2023-01-28T01:09:08.231Z,-6.50
2023-01-28T01:11:36.360Z,-6.50
2023-01-28T01:14:05.475Z,-6.60
2023-01-28T01:16:33.667Z,-6.60
2023-01-28T01:19:01.327Z,-6.70
2023-01-28T01:21:30.598Z,-6.80
2023-01-28T01:23:58.355Z,-6.70
2023-01-28T01:26:28.144Z,-6.90
2023-01-28T01:28:58.315Z,-7.00
2023-01-28T01:31:26.070Z,-7.00
2023-01-28T01:33:53.941Z,-7.00
2023-01-28T01:36:25.006Z,-7.10
2023-01-28T01:38:56.476Z,-7.10
2023-01-28T01:41:32.439Z,-7.10
2023-01-28T01:44:02.493Z,-7.00
2023-01-28T01:46:48.931Z,-7.00
2023-01-28T01:49:26.791Z,-7.10
2023-01-28T01:52:06.540Z,-7.30
2023-01-28T01:54:35.405Z,-7.40
2023-01-28T01:57:04.651Z,-7.20
2023-01-28T01:59:35.619Z,-7.20
2023-01-28T02:02:07.138Z,-7.30
2023-01-28T02:04:39.681Z,-7.50
2023-01-28T02:07:10.889Z,-7.40
2023-01-28T02:09:41.724Z,-7.30
2023-01-28T02:12:32.199Z,-7.20
2023-01-28T02:15:05.952Z,-7.20
2023-01-28T02:17:34.619Z,-7.20
2023-01-28T02:20:09.568Z,-7.30
2023-01-28T02:23:21.858Z,-7.60
2023-01-28T02:26:33.535Z,-7.70
2023-01-28T02:29:07.175Z,-7.40
2023-01-28T02:31:46.853Z,-7.50
2023-01-28T02:34:27.470Z,-7.60
2023-01-28T02:37:00.422Z,-7.40
2023-01-28T02:39:36.902Z,-7.30
2023-01-28T02:42:17.521Z,-7.40
2023-01-28T02:44:45.155Z,-7.30
2023-01-28T02:47:32.585Z,-7.30
2023-01-28T02:50:04.749Z,-7.30
2023-01-28T02:53:16.386Z,-7.10
2023-01-28T02:55:56.488Z,-7.40
2023-01-28T02:58:47.045Z,-7.30
2023-01-28T03:01:17.737Z,-7.20
2023-01-28T03:04:10.383Z,-7.00
2023-01-28T03:06:46.896Z,-7.20
2023-01-28T03:09:28.225Z,-7.20
2023-01-28T03:12:24.870Z,-7.00
2023-01-28T03:15:27.342Z,-7.00
2023-01-28T03:18:29.157Z,-7.00
2023-01-28T03:21:20.629Z,-6.80
2023-01-28T03:24:17.859Z,-6.70
2023-01-28T03:27:16.929Z,-6.70
2023-01-28T03:30:09.079Z,-6.50
2023-01-28T03:32:56.502Z,-6.30
2023-01-28T03:35:48.377Z,-6.30
2023-01-28T03:38:23.055Z,-6.60
2023-01-28T03:40:53.079Z,-6.70
2023-01-28T03:43:21.125Z,-6.60
2023-01-28T03:45:51.607Z,-6.50
2023-01-28T03:48:20.574Z,-6.50
2023-01-28T03:50:48.405Z,-6.40
2023-01-28T03:53:17.497Z,-6.60
2023-01-28T03:55:52.924Z,-6.60
2023-01-28T03:58:21.556Z,-6.60
2023-01-28T04:00:49.252Z,-6.50
2023-01-28T04:03:19.977Z,-6.50
2023-01-28T04:06:03.476Z,-6.60
2023-01-28T04:09:00.473Z,-6.70
2023-01-28T04:11:33.655Z,-6.50
2023-01-28T04:14:06.587Z,-6.40
2023-01-28T04:16:48.263Z,-6.40
2023-01-28T04:19:16.393Z,-6.50
2023-01-28T04:21:45.462Z,-6.30
2023-01-28T04:24:14.578Z,-6.40
2023-01-28T04:26:42.795Z,-6.50
2023-01-28T04:29:10.458Z,-6.50
2023-01-28T04:31:39.066Z,-6.40
2023-01-28T04:34:26.878Z,-6.40
2023-01-28T04:37:13.111Z,-6.40
2023-01-28T04:40:03.777Z,-6.20
2023-01-28T04:42:57.046Z,-6.20
2023-01-28T04:45:48.773Z,-6.20
2023-01-28T04:48:41.769Z,-6.10
2023-01-28T04:51:32.579Z,-6.10
2023-01-28T04:54:18.788Z,-5.80
2023-01-28T04:56:46.582Z,-5.80
2023-01-28T04:59:14.847Z,-5.70
2023-01-28T05:01:42.671Z,-5.80
2023-01-28T05:04:10.309Z,-5.70
2023-01-28T05:06:39.860Z,-5.70
2023-01-28T05:09:11.735Z,-5.70
2023-01-28T05:11:40.949Z,-5.70
2023-01-28T05:14:22.907Z,-5.70
2023-01-28T05:17:06.495Z,-5.60
2023-01-28T05:19:34.207Z,-5.50
2023-01-28T05:22:03.307Z,-5.50
2023-01-28T05:24:41.924Z,-5.50
2023-01-28T05:27:09.793Z,-5.50
2023-01-28T05:29:37.605Z,-5.50
2023-01-28T05:32:05.479Z,-5.40
2023-01-28T05:34:33.587Z,-5.30
2023-01-28T05:37:06.840Z,-5.30
2023-01-28T05:39:39.073Z,-5.30
2023-01-28T05:42:07.006Z,-5.30
2023-01-28T05:44:38.015Z,-5.30
2023-01-28T05:47:41.704Z,-5.20
2023-01-28T05:50:37.747Z,-5.20
2023-01-28T05:53:12.432Z,-5.10
2023-01-28T05:55:43.374Z,-5.00
2023-01-28T05:58:42.783Z,-5.10
2023-01-28T06:01:10.565Z,-4.90
2023-01-28T06:03:42.838Z,-4.80
2023-01-28T06:06:14.232Z,-4.70
2023-01-28T06:08:42.492Z,-4.70
2023-01-28T06:11:10.502Z,-4.60
2023-01-28T06:13:38.675Z,-4.70
2023-01-28T06:16:35.596Z,-4.70
2023-01-28T06:19:25.832Z,-4.60
2023-01-28T06:21:53.598Z,-4.70
2023-01-28T06:24:21.723Z,-4.60
2023-01-28T06:26:49.671Z,-4.70
2023-01-28T06:29:17.310Z,-4.70
2023-01-28T06:31:45.652Z,-4.70
2023-01-28T06:34:13.828Z,-4.60
2023-01-28T06:36:41.488Z,-4.50
2023-01-28T06:39:09.120Z,-4.60
2023-01-28T06:41:38.951Z,-4.50
2023-01-28T06:44:06.677Z,-4.40
2023-01-28T06:46:34.505Z,-4.40
2023-01-28T06:49:02.268Z,-4.40
2023-01-28T06:51:30.036Z,-4.40
2023-01-28T06:53:57.762Z,-4.40
2023-01-28T06:56:25.643Z,-4.30
2023-01-28T06:58:53.281Z,-4.30
2023-01-28T07:01:21.060Z,-4.40
2023-01-28T07:03:48.727Z,-4.40
2023-01-28T07:06:16.465Z,-4.30
2023-01-28T07:08:44.158Z,-4.30
2023-01-28T07:11:11.785Z,-4.30
2023-01-28T07:13:39.850Z,-4.20
2023-01-28T07:16:08.210Z,-4.10
2023-01-28T07:18:36.176Z,-4.00
2023-01-28T07:21:06.239Z,-3.90
2023-01-28T07:29:46.372Z,-3.90
2023-01-28T07:32:14.170Z,-3.80
2023-01-28T07:34:43.273Z,-3.70
2023-01-28T07:37:11.105Z,-3.60
2023-01-28T07:39:38.968Z,-3.60
2023-01-28T07:42:07.119Z,-3.50
2023-01-28T07:44:39.972Z,-3.50
2023-01-28T07:47:07.837Z,-3.60
2023-01-28T07:49:35.743Z,-3.40
2023-01-28T07:52:03.620Z,-3.40
2023-01-28T07:54:31.749Z,-3.20
2023-01-28T07:56:59.522Z,-3.20
2023-01-28T07:59:30.395Z,-3.30
2023-01-28T08:02:04.925Z,-3.30
2023-01-28T08:04:35.529Z,-3.10
2023-01-28T08:07:14.580Z,-3.10
2023-01-28T08:09:42.751Z,-3.00
2023-01-28T08:12:10.447Z,-2.90
2023-01-28T08:14:38.305Z,-2.80
2023-01-28T08:17:05.996Z,-2.70
2023-01-28T08:19:33.869Z,-2.90
2023-01-28T08:22:01.542Z,-2.70
2023-01-28T08:24:32.142Z,-2.50
2023-01-28T08:26:59.743Z,-2.40
2023-01-28T08:29:27.484Z,-2.50
2023-01-28T08:31:55.236Z,-2.20
2023-01-28T08:34:23.082Z,-2.10
2023-01-28T08:36:50.694Z,-1.90
2023-01-28T08:39:18.833Z,-1.80
2023-01-28T08:41:46.485Z,-1.60
2023-01-28T08:44:14.218Z,-1.30
2023-01-28T08:46:41.898Z,-1.10
2023-01-28T08:49:09.569Z,-0.90
2023-01-28T08:51:37.262Z,-0.70
2023-01-28T08:54:08.454Z,-0.50
2023-01-28T08:56:39.065Z,-0.20
2023-01-28T08:59:07.917Z,0.00
2023-01-28T09:01:35.869Z,0.00
2023-01-28T09:04:04.125Z,-0.10
2023-01-28T09:06:32.323Z,-0.10
2023-01-28T09:09:00.913Z,0.00
2023-01-28T09:11:29.615Z,0.10
2023-01-28T09:14:11.118Z,0.40
2023-01-28T09:16:52.888Z,0.60
2023-01-28T09:19:24.533Z,0.60
2023-01-28T09:22:00.409Z,0.80
2023-01-28T09:25:24.076Z,0.80
2023-01-28T09:28:55.028Z,0.60
2023-01-28T09:32:33.730Z,0.60
2023-01-28T09:35:15.430Z,0.70
2023-01-28T09:37:46.970Z,0.60
2023-01-28T09:41:11.045Z,0.80
2023-01-28T09:44:50.673Z,1.10
2023-01-28T09:47:57.762Z,1.10
2023-01-28T09:50:32.604Z,1.10
2023-01-28T09:53:23.187Z,0.90
2023-01-28T09:56:00.745Z,1.00
2023-01-28T09:58:32.176Z,0.90
2023-01-28T10:01:04.951Z,0.80
2023-01-28T10:03:54.757Z,0.70
2023-01-28T10:07:02.064Z,0.70
2023-01-28T10:09:45.479Z,0.90
2023-01-28T10:12:13.238Z,1.00
2023-01-28T10:15:21.395Z,1.10
2023-01-28T10:17:53.622Z,1.10
2023-01-28T10:20:31.087Z,1.00
2023-01-28T10:23:07.356Z,1.20
2023-01-28T10:25:36.817Z,1.40
2023-01-28T10:28:22.137Z,1.40
2023-01-28T10:30:55.040Z,1.40
2023-01-28T10:33:43.537Z,1.50
2023-01-28T10:36:19.452Z,1.50
2023-01-28T10:38:49.606Z,1.40
2023-01-28T10:41:21.343Z,1.60
2023-01-28T10:43:50.719Z,2.40
2023-01-28T10:46:33.875Z,3.00
2023-01-28T10:49:19.045Z,3.30
2023-01-28T10:51:46.917Z,3.80
2023-01-28T10:54:27.840Z,4.00
2023-01-28T10:57:02.422Z,3.60
2023-01-28T10:59:31.296Z,3.20
2023-01-28T11:02:04.013Z,3.70
2023-01-28T11:04:34.833Z,4.10
2023-01-28T11:07:28.976Z,4.20
2023-01-28T11:10:34.346Z,4.80
2023-01-28T11:14:30.478Z,4.80
2023-01-28T11:18:11.392Z,4.30
2023-01-28T11:23:17.149Z,3.60
2023-01-28T11:32:27.963Z,2.60
2023-01-28T11:35:33.713Z,3.10
2023-01-28T11:38:01.752Z,3.70
2023-01-28T11:40:29.648Z,4.10
2023-01-28T11:42:58.464Z,3.60
2023-01-28T11:45:58.153Z,3.50
2023-01-28T11:48:49.645Z,3.50
2023-01-28T11:51:26.549Z,3.40
2023-01-28T11:54:20.427Z,3.10
2023-01-28T11:57:04.554Z,3.10
2023-01-28T11:59:41.765Z,3.40
2023-01-28T12:02:34.380Z,3.50
2023-01-28T12:05:31.217Z,4.20
2023-01-28T12:08:34.325Z,4.00
2023-01-28T12:12:06.145Z,3.80
2023-01-28T12:14:58.960Z,4.70
2023-01-28T12:17:53.124Z,4.90
2023-01-28T12:20:28.089Z,5.40
2023-01-28T12:23:30.357Z,5.60
2023-01-28T12:26:07.164Z,4.50
2023-01-28T12:28:41.887Z,4.10
2023-01-28T12:31:17.142Z,3.20
2023-01-28T12:34:25.835Z,2.90
2023-01-28T12:37:25.845Z,2.80
2023-01-28T12:40:15.327Z,2.60
2023-01-28T12:42:52.933Z,2.40
2023-01-28T12:45:29.934Z,2.30
2023-01-28T12:48:15.609Z,2.00
2023-01-28T12:50:49.979Z,2.30
2023-01-28T12:53:30.854Z,2.00
2023-01-28T12:55:58.463Z,2.00
2023-01-28T12:58:55.549Z,1.80
2023-01-28T13:01:37.184Z,2.00
2023-01-28T13:04:12.562Z,1.80
2023-01-28T13:07:18.594Z,1.70
2023-01-28T13:10:04.861Z,1.60
2023-01-28T13:12:34.074Z,1.60
2023-01-28T13:15:06.902Z,1.60
2023-01-28T13:17:35.607Z,1.60
2023-01-28T13:20:15.434Z,1.70
2023-01-28T13:22:45.309Z,1.80
2023-01-28T13:25:24.388Z,1.50
2023-01-28T13:28:06.700Z,1.50
2023-01-28T13:30:47.102Z,1.40
2023-01-28T13:33:31.265Z,1.50
2023-01-28T13:36:07.462Z,1.50
2023-01-28T13:38:36.431Z,1.60
2023-01-28T13:41:06.614Z,1.50
2023-01-28T13:43:34.309Z,1.40
2023-01-28T13:46:14.628Z,1.20
2023-01-28T13:48:52.150Z,1.10
2023-01-28T13:51:33.253Z,1.20
2023-01-28T13:54:28.822Z,1.20
2023-01-28T13:57:28.974Z,1.20
2023-01-28T14:00:27.792Z,1.10
2023-01-28T14:03:28.513Z,1.20
2023-01-28T14:06:05.187Z,1.00
2023-01-28T14:09:06.662Z,1.00
2023-01-28T14:11:42.842Z,0.80
2023-01-28T14:14:36.597Z,0.80
2023-01-28T14:17:22.729Z,0.60
2023-01-28T14:19:52.372Z,0.60
2023-01-28T14:22:21.404Z,0.50
2023-01-28T14:24:50.127Z,0.60
2023-01-28T14:27:21.522Z,0.60
2023-01-28T14:29:55.268Z,0.60
2023-01-28T14:32:29.523Z,0.40
2023-01-28T14:35:07.547Z,0.40
2023-01-28T14:37:35.852Z,0.50
2023-01-28T14:40:08.703Z,0.50
2023-01-28T14:43:03.634Z,0.50
2023-01-28T14:45:54.532Z,0.50
2023-01-28T14:48:32.393Z,0.40
2023-01-28T14:51:24.985Z,0.40
2023-01-28T14:54:20.032Z,0.50
2023-01-28T14:57:03.039Z,0.40
2023-01-28T14:59:51.437Z,0.30
2023-01-28T15:02:27.422Z,0.20
2023-01-28T15:04:55.604Z,0.20
2023-01-28T15:07:27.680Z,0.20
2023-01-28T15:10:23.038Z,0.10
2023-01-28T15:12:56.527Z,0.10
2023-01-28T15:15:50.036Z,0.00
2023-01-28T15:18:22.633Z,-0.10
2023-01-28T15:20:55.412Z,-0.10
2023-01-28T15:23:34.452Z,-0.10
2023-01-28T15:26:15.722Z,-0.20
2023-01-28T15:28:45.651Z,-0.40
2023-01-28T15:31:21.242Z,-0.40
2023-01-28T15:34:16.586Z,-0.40
2023-01-28T15:36:44.466Z,-0.40
2023-01-28T15:39:17.842Z,-0.50
2023-01-28T15:41:52.225Z,-0.50
2023-01-28T15:44:31.441Z,-0.50
2023-01-28T15:47:01.642Z,-0.50
2023-01-28T15:49:36.686Z,-0.60
2023-01-28T15:52:04.629Z,-0.60
2023-01-28T15:54:32.414Z,-0.60
2023-01-28T15:57:31.176Z,-0.60
2023-01-28T16:00:25.677Z,-0.60
2023-01-28T16:02:55.512Z,-0.70
2023-01-28T16:05:24.605Z,-0.70
2023-01-28T16:07:52.615Z,-0.70
2023-01-28T16:10:28.884Z,-0.80
2023-01-28T16:13:07.413Z,-0.80
2023-01-28T16:15:38.438Z,-0.80
2023-01-28T16:18:08.052Z,-0.90
2023-01-28T16:20:35.846Z,-0.90
2023-01-28T16:23:04.371Z,-0.90
2023-01-28T16:25:34.493Z,-0.90
2023-01-28T16:28:23.117Z,-0.90
2023-01-28T16:30:51.342Z,-1.00
2023-01-28T16:33:20.733Z,-0.90
2023-01-28T16:36:05.365Z,-0.90
2023-01-28T16:38:34.177Z,-0.90
2023-01-28T16:41:01.882Z,-1.00
2023-01-28T16:43:29.554Z,-1.00
2023-01-28T16:45:57.274Z,-1.00
2023-01-28T16:48:24.944Z,-1.10
2023-01-28T16:50:52.820Z,-1.10
2023-01-28T16:53:28.261Z,-1.10
2023-01-28T16:55:57.303Z,-1.20
2023-01-28T16:58:26.768Z,-1.20
2023-01-28T17:00:54.825Z,-1.30
2023-01-28T17:03:23.636Z,-1.30
2023-01-28T17:05:51.503Z,-1.30
2023-01-28T17:08:19.164Z,-1.30
2023-01-28T17:10:53.165Z,-1.40
2023-01-28T17:13:21.220Z,-1.40
2023-01-28T17:15:49.202Z,-1.40
2023-01-28T17:18:16.828Z,-1.50
2023-01-28T17:20:44.929Z,-1.60
2023-01-28T17:23:15.624Z,-1.70
2023-01-28T17:25:43.846Z,-1.80
2023-01-28T17:28:11.815Z,-1.80
2023-01-28T17:30:42.895Z,-1.80
2023-01-28T17:33:14.954Z,-1.80
2023-01-28T17:35:47.385Z,-1.80
2023-01-28T17:38:15.371Z,-1.90
2023-01-28T17:40:43.013Z,-1.90
2023-01-28T17:43:10.664Z,-1.90
2023-01-28T17:45:38.455Z,-1.90
2023-01-28T17:48:07.629Z,-1.90
2023-01-28T17:50:38.203Z,-1.90
2023-01-28T17:53:06.281Z,-1.90
2023-01-28T17:55:37.325Z,-1.90
2023-01-28T17:58:05.175Z,-1.90
2023-01-28T18:00:33.314Z,-1.90
2023-01-28T18:03:02.258Z,-2.00
2023-01-28T18:05:30.840Z,-2.00
2023-01-28T18:07:58.580Z,-2.00
2023-01-28T18:10:27.245Z,-2.00
2023-01-28T18:12:54.872Z,-2.10
2023-01-28T18:15:25.510Z,-2.10
2023-01-28T18:17:53.342Z,-2.10
2023-01-28T18:20:30.444Z,-2.20
2023-01-28T18:22:58.408Z,-2.30
2023-01-28T18:25:26.427Z,-2.30
2023-01-28T18:27:54.317Z,-2.30
2023-01-28T18:30:22.223Z,-2.40
2023-01-28T18:32:50.399Z,-2.50
2023-01-28T18:35:18.705Z,-2.50
2023-01-28T18:37:46.615Z,-2.50
2023-01-28T18:40:14.407Z,-2.60
2023-01-28T18:42:42.212Z,-2.60
2023-01-28T18:45:10.194Z,-2.60
2023-01-28T18:47:37.976Z,-2.80
2023-01-28T18:50:06.298Z,-2.80
2023-01-28T18:52:34.042Z,-2.80
2023-01-28T18:55:01.816Z,-2.90
2023-01-28T18:57:29.475Z,-3.00
2023-01-28T18:59:57.226Z,-2.90
2023-01-28T19:02:25.546Z,-2.80
2023-01-28T19:04:56.040Z,-2.80
2023-01-28T19:07:23.916Z,-2.80
2023-01-28T19:09:51.564Z,-2.80
2023-01-28T19:12:22.187Z,-3.00
2023-01-28T19:14:50.299Z,-3.00
2023-01-28T19:17:17.969Z,-2.90
2023-01-28T19:19:48.389Z,-2.90
2023-01-28T19:22:16.878Z,-2.90
2023-01-28T19:24:44.649Z,-3.10
2023-01-28T19:27:12.343Z,-3.20
2023-01-28T19:29:40.238Z,-3.20
2023-01-28T19:32:07.989Z,-3.20
2023-01-28T19:34:35.847Z,-3.10
2023-01-28T19:37:03.609Z,-3.10
2023-01-28T19:39:32.432Z,-3.10
2023-01-28T19:42:03.277Z,-3.10
2023-01-28T19:44:32.799Z,-3.20
2023-01-28T19:47:02.289Z,-3.30
2023-01-28T19:49:30.061Z,-3.30
2023-01-28T19:51:58.594Z,-3.30
2023-01-28T19:54:26.784Z,-3.20
2023-01-28T19:56:54.543Z,-3.20
2023-01-28T19:59:22.292Z,-3.10
2023-01-28T20:01:50.097Z,-3.00
2023-01-28T20:04:17.749Z,-3.00
2023-01-28T20:06:45.966Z,-3.00
2023-01-28T20:09:17.125Z,-3.00
2023-01-28T20:11:44.889Z,-2.90
2023-01-28T20:14:14.993Z,-2.90
2023-01-28T20:16:46.620Z,-2.80
2023-01-28T20:19:17.137Z,-2.80
2023-01-28T20:21:46.078Z,-2.70
2023-01-28T20:24:15.370Z,-2.70
2023-01-28T20:26:44.031Z,-2.60
2023-01-28T20:29:22.340Z,-2.60
2023-01-28T20:32:05.127Z,-2.60
2023-01-28T20:34:37.164Z,-2.60
2023-01-28T20:37:06.672Z,-2.50
2023-01-28T20:39:34.423Z,-2.50
2023-01-28T20:42:02.681Z,-2.50
2023-01-28T20:44:32.195Z,-2.50
2023-01-28T20:46:59.929Z,-2.50
2023-01-28T20:49:28.594Z,-2.40
2023-01-28T20:51:56.872Z,-2.40
2023-01-28T20:54:25.674Z,-2.40
2023-01-28T20:56:53.950Z,-2.30
2023-01-28T20:59:21.724Z,-2.40
2023-01-28T21:01:50.081Z,-2.30
2023-01-28T21:04:17.744Z,-2.30
2023-01-28T21:06:45.420Z,-2.30
2023-01-28T21:09:13.187Z,-2.30
2023-01-28T21:11:40.923Z,-2.20
2023-01-28T21:14:08.624Z,-2.20
2023-01-28T21:16:41.266Z,-2.20
2023-01-28T21:19:12.247Z,-2.20
2023-01-28T21:21:42.819Z,-2.20
2023-01-28T21:24:11.940Z,-2.20
2023-01-28T21:26:43.531Z,-2.20
2023-01-28T21:29:11.238Z,-2.30
2023-01-28T21:31:39.428Z,-2.30
2023-01-28T21:34:08.446Z,-2.20
2023-01-28T21:36:37.295Z,-2.20
2023-01-28T21:39:05.462Z,-2.10
2023-01-28T21:41:33.450Z,-2.20
2023-01-28T21:44:01.643Z,-2.20
2023-01-28T21:46:32.397Z,-2.20
2023-01-28T21:49:01.894Z,-2.20
2023-01-28T21:51:35.673Z,-2.20
2023-01-28T21:54:04.476Z,-2.20
2023-01-28T21:56:32.128Z,-2.10
2023-01-28T21:59:19.300Z,-2.20
2023-01-28T22:01:47.920Z,-2.10
2023-01-28T22:04:16.599Z,-2.20
2023-01-28T22:06:45.226Z,-2.20
2023-01-28T22:09:14.114Z,-2.20
2023-01-28T22:11:43.616Z,-2.20
2023-01-28T22:14:14.318Z,-2.30
2023-01-28T22:16:42.292Z,-2.30
2023-01-28T22:19:11.055Z,-2.20
2023-01-28T22:21:43.475Z,-2.20
2023-01-28T22:24:14.350Z,-2.30
2023-01-28T22:26:43.079Z,-2.20
2023-01-28T22:29:12.190Z,-2.20
2023-01-28T22:31:40.211Z,-2.20
2023-01-28T22:34:08.327Z,-2.20
2023-01-28T22:36:36.321Z,-2.20
2023-01-28T22:39:06.204Z,-2.20
2023-01-28T22:41:34.913Z,-2.20
2023-01-28T22:44:03.830Z,-2.20
2023-01-28T22:46:33.337Z,-2.20
2023-01-28T22:49:01.496Z,-2.20
2023-01-28T22:51:34.832Z,-2.20
2023-01-28T22:54:03.158Z,-2.20
2023-01-28T22:56:31.875Z,-2.20
2023-01-28T22:59:02.043Z,-2.20
2023-01-28T23:01:30.037Z,-2.10
2023-01-28T23:03:57.961Z,-2.10
2023-01-28T23:06:27.588Z,-2.10
2023-01-28T23:08:56.467Z,-2.10
2023-01-28T23:11:25.816Z,-2.10
2023-01-28T23:14:14.628Z,-2.10
2023-01-28T23:17:00.837Z,-2.10
2023-01-28T23:19:47.207Z,-2.20
2023-01-28T23:22:40.306Z,-2.20
2023-01-28T23:25:08.932Z,-2.20
2023-01-28T23:27:36.713Z,-2.20
2023-01-28T23:30:05.851Z,-2.20
2023-01-28T23:32:33.633Z,-2.20
2023-01-28T23:35:01.244Z,-2.20
2023-01-28T23:37:29.551Z,-2.10
2023-01-28T23:39:57.234Z,-2.10
2023-01-28T23:42:26.012Z,-2.10
2023-01-28T23:44:54.005Z,-2.10
2023-01-28T23:47:21.582Z,-2.20
2023-01-28T23:49:49.210Z,-2.30
2023-01-28T23:52:16.927Z,-2.20
2023-01-28T23:54:44.605Z,-2.20
2023-01-28T23:57:12.328Z,-2.20
2023-01-28T23:59:40.019Z,-2.10
